createdAt,value
2018-09-29T00:00:43.545Z,77.80
2018-09-29T00:03:13.690Z,76.80
2018-09-29T00:05:43.528Z,77.60
2018-09-29T00:08:13.207Z,76.80
2018-09-29T00:10:42.879Z,76.40
2018-09-29T00:13:12.606Z,77.20
2018-09-29T00:15:42.273Z,77.10
2018-09-29T00:18:11.966Z,77.40
2018-09-29T00:20:41.639Z,76.10
2018-09-29T00:23:11.323Z,75.50
2018-09-29T00:25:40.994Z,75.30
2018-09-29T00:28:10.750Z,73.90
2018-09-29T00:30:40.416Z,74.40
2018-09-29T00:33:10.483Z,73.50
2018-09-29T00:35:40.157Z,73.80
2018-09-29T00:38:09.838Z,73.10
2018-09-29T00:40:39.519Z,73.30
2018-09-29T00:43:09.206Z,74.60
2018-09-29T00:45:38.930Z,73.00
2018-09-29T00:48:08.651Z,72.50
2018-09-29T00:50:38.342Z,73.50
2018-09-29T00:53:08.097Z,74.00
2018-09-29T00:55:37.774Z,73.70
2018-09-29T00:58:08.118Z,72.80
2018-09-29T01:00:37.776Z,71.70
2018-09-29T01:03:07.511Z,72.70
2018-09-29T01:05:37.210Z,73.00
2018-09-29T01:08:06.882Z,71.60
2018-09-29T01:10:37.091Z,72.90
2018-09-29T01:13:07.177Z,75.10
2018-09-29T01:15:36.886Z,73.70
2018-09-29T01:18:07.114Z,72.90
2018-09-29T01:20:36.868Z,73.40
2018-09-29T01:23:06.891Z,73.30
2018-09-29T01:25:36.923Z,72.60
2018-09-29T01:28:06.643Z,71.30
2018-09-29T01:30:36.318Z,72.50
2018-09-29T01:33:06.063Z,71.90
2018-09-29T01:35:35.831Z,73.00
2018-09-29T01:38:05.524Z,73.00
2018-09-29T01:40:35.251Z,73.00
2018-09-29T01:43:04.943Z,72.20
2018-09-29T01:45:34.617Z,72.10
2018-09-29T01:48:04.276Z,72.00
2018-09-29T01:50:33.946Z,73.00
2018-09-29T01:53:03.631Z,72.90
2018-09-29T01:55:33.339Z,73.40
2018-09-29T01:58:03.008Z,74.90
2018-09-29T02:00:32.729Z,76.90
2018-09-29T02:03:07.676Z,74.50
2018-09-29T02:05:37.603Z,74.60
2018-09-29T02:08:07.448Z,73.60
2018-09-29T02:10:38.540Z,74.40
2018-09-29T02:13:09.258Z,74.10
2018-09-29T02:15:39.049Z,74.90
2018-09-29T02:18:08.719Z,75.10
2018-09-29T02:20:38.442Z,74.90
2018-09-29T02:23:08.111Z,74.20
2018-09-29T02:25:37.819Z,74.30
2018-09-29T02:28:07.514Z,74.60
2018-09-29T02:30:37.199Z,74.90
2018-09-29T02:33:06.907Z,75.40
2018-09-29T02:35:36.609Z,75.40
2018-09-29T02:38:06.419Z,76.00
2018-09-29T02:40:36.119Z,75.00
2018-09-29T02:43:06.335Z,75.40
2018-09-29T02:45:36.052Z,75.60
2018-09-29T02:48:05.983Z,76.00
2018-09-29T02:50:35.665Z,76.50
2018-09-29T02:53:05.720Z,75.10
2018-09-29T02:55:35.427Z,75.50
2018-09-29T02:58:05.094Z,76.60
2018-09-29T03:00:34.791Z,74.60
2018-09-29T03:03:04.470Z,75.90
2018-09-29T03:05:34.172Z,76.00
2018-09-29T03:08:03.927Z,77.10
2018-09-29T03:10:33.611Z,75.70
2018-09-29T03:13:03.299Z,76.90
2018-09-29T03:15:33.068Z,77.00
2018-09-29T03:18:02.744Z,77.70
2018-09-29T03:20:32.511Z,75.40
2018-09-29T03:23:02.257Z,78.60
2018-09-29T03:25:32.095Z,76.60
2018-09-29T03:28:01.781Z,77.10
2018-09-29T03:30:31.583Z,75.90
2018-09-29T03:33:01.248Z,75.80
2018-09-29T03:35:30.949Z,77.20
2018-09-29T03:38:00.640Z,76.10
2018-09-29T03:40:30.531Z,76.80
2018-09-29T03:43:00.276Z,78.30
2018-09-29T03:45:29.958Z,77.60
2018-09-29T03:47:59.643Z,78.60
2018-09-29T03:50:29.336Z,77.10
2018-09-29T03:52:59.006Z,76.50
2018-09-29T03:55:28.742Z,77.70
2018-09-29T03:57:59.451Z,79.90
2018-09-29T04:00:29.147Z,77.30
2018-09-29T04:02:58.811Z,77.40
2018-09-29T04:05:28.510Z,77.50
2018-09-29T04:07:58.189Z,77.30
2018-09-29T04:10:27.873Z,76.70
2018-09-29T04:12:57.553Z,77.20
2018-09-29T04:15:27.515Z,77.20
2018-09-29T04:17:57.254Z,78.00
2018-09-29T04:20:27.010Z,78.00
2018-09-29T04:22:56.719Z,77.80
2018-09-29T04:25:26.411Z,78.40
2018-09-29T04:27:56.139Z,77.60
2018-09-29T04:30:26.624Z,77.60
2018-09-29T04:32:56.339Z,78.40
2018-09-29T04:35:26.053Z,79.50
2018-09-29T04:37:55.744Z,79.10
2018-09-29T04:40:25.456Z,78.00
2018-09-29T04:42:55.163Z,78.80
2018-09-29T04:45:24.857Z,78.70
2018-09-29T04:47:54.566Z,78.10
2018-09-29T04:50:24.222Z,78.80
2018-09-29T04:52:53.908Z,78.10
2018-09-29T04:55:23.583Z,78.20
2018-09-29T04:57:53.326Z,78.80
2018-09-29T05:00:22.978Z,79.10
2018-09-29T05:02:52.786Z,80.80
2018-09-29T05:05:22.853Z,79.80
2018-09-29T05:07:52.598Z,79.30
2018-09-29T05:10:22.254Z,79.20
2018-09-29T05:12:51.974Z,80.70
2018-09-29T05:15:23.791Z,79.30
2018-09-29T05:17:54.035Z,78.80
2018-09-29T05:20:24.055Z,78.90
2018-09-29T05:22:53.759Z,80.70
2018-09-29T05:25:23.498Z,79.50
2018-09-29T05:27:53.170Z,78.10
2018-09-29T05:30:22.884Z,79.20
2018-09-29T05:32:52.611Z,78.40
2018-09-29T05:35:22.595Z,79.60
2018-09-29T05:37:52.271Z,80.80
2018-09-29T05:40:22.015Z,80.70
2018-09-29T05:42:51.907Z,80.30
2018-09-29T05:45:21.696Z,79.60
2018-09-29T05:47:51.939Z,78.70
2018-09-29T05:50:21.592Z,78.10
2018-09-29T05:52:51.274Z,79.20
2018-09-29T05:55:20.936Z,79.60
2018-09-29T05:57:50.682Z,78.80
2018-09-29T06:00:21.292Z,80.30
2018-09-29T06:02:53.775Z,79.50
2018-09-29T06:05:24.135Z,78.90
2018-09-29T06:07:54.011Z,78.00
2018-09-29T06:10:24.936Z,78.80
2018-09-29T06:12:54.694Z,78.80
2018-09-29T06:15:24.439Z,78.10
2018-09-29T06:17:54.116Z,78.60
2018-09-29T06:20:23.787Z,79.20
2018-09-29T06:22:53.462Z,77.60
2018-09-29T06:25:23.119Z,78.30
2018-09-29T06:27:52.924Z,78.20
2018-09-29T06:30:23.051Z,77.20
2018-09-29T06:32:52.754Z,78.00
2018-09-29T06:35:22.426Z,79.30
2018-09-29T06:37:52.126Z,77.80
2018-09-29T06:40:21.914Z,77.20
2018-09-29T06:42:53.803Z,78.00
2018-09-29T06:45:24.097Z,77.90
2018-09-29T06:47:53.804Z,77.00
2018-09-29T06:50:23.476Z,77.20
2018-09-29T06:52:53.221Z,76.70
2018-09-29T06:55:22.898Z,75.70
2018-09-29T06:57:52.706Z,75.80
2018-09-29T07:00:22.539Z,74.30
2018-09-29T07:02:52.297Z,74.60
2018-09-29T07:05:22.096Z,73.40
2018-09-29T07:07:51.971Z,73.50
2018-09-29T07:10:21.997Z,72.40
2018-09-29T07:12:51.783Z,73.40
2018-09-29T07:15:21.702Z,72.80
2018-09-29T07:17:51.490Z,73.30
2018-09-29T07:20:21.371Z,72.20
2018-09-29T07:22:51.112Z,72.40
2018-09-29T07:25:21.160Z,72.10
2018-09-29T07:27:51.030Z,72.20
2018-09-29T07:30:20.768Z,71.50
2018-09-29T07:32:50.980Z,71.70
2018-09-29T07:35:20.683Z,72.50
2018-09-29T07:37:50.696Z,71.30
2018-09-29T07:40:20.503Z,69.50
2018-09-29T07:42:50.236Z,70.60
2018-09-29T07:45:25.627Z,69.80
2018-09-29T07:47:55.371Z,68.50
2018-09-29T07:50:25.066Z,69.70
2018-09-29T07:52:54.819Z,67.60
2018-09-29T07:55:24.532Z,69.50
2018-09-29T07:57:54.259Z,68.60
2018-09-29T08:00:24.252Z,67.00
2018-09-29T08:02:54.268Z,66.30
2018-09-29T08:05:23.975Z,68.30
2018-09-29T08:07:54.014Z,67.40
2018-09-29T08:10:23.910Z,67.90
2018-09-29T08:12:55.235Z,66.70
2018-09-29T08:15:24.967Z,66.40
2018-09-29T08:17:54.690Z,66.90
2018-09-29T08:20:24.695Z,67.00
2018-09-29T08:22:54.684Z,67.00
2018-09-29T08:25:24.411Z,64.70
2018-09-29T08:27:54.236Z,63.70
2018-09-29T08:30:24.327Z,64.60
2018-09-29T08:32:54.019Z,66.00
2018-09-29T08:35:24.014Z,64.50
2018-09-29T08:37:53.759Z,63.70
2018-09-29T08:40:23.650Z,65.10
2018-09-29T08:42:53.558Z,65.40
2018-09-29T08:45:23.283Z,63.10
2018-09-29T08:47:53.050Z,65.80
2018-09-29T08:50:22.978Z,65.50
2018-09-29T08:52:53.054Z,64.70
2018-09-29T08:55:23.116Z,65.80
2018-09-29T08:57:53.123Z,64.60
2018-09-29T09:00:22.883Z,65.70
2018-09-29T09:02:52.584Z,65.50
2018-09-29T09:05:22.715Z,66.90
2018-09-29T09:07:52.437Z,66.30
2018-09-29T09:10:22.175Z,65.30
2018-09-29T09:12:51.874Z,66.20
2018-09-29T09:15:21.619Z,67.30
2018-09-29T09:17:51.315Z,66.50
2018-09-29T09:20:21.091Z,66.60
2018-09-29T09:22:50.807Z,67.40
2018-09-29T09:25:21.039Z,67.70
2018-09-29T09:27:50.742Z,66.80
2018-09-29T09:30:20.536Z,67.80
2018-09-29T09:32:50.731Z,67.60
2018-09-29T09:35:20.467Z,68.60
2018-09-29T09:37:50.179Z,68.60
2018-09-29T09:40:19.896Z,68.30
2018-09-29T09:42:49.602Z,68.00
2018-09-29T09:45:19.338Z,67.40
2018-09-29T09:47:49.090Z,67.80
2018-09-29T09:50:18.802Z,69.00
2018-09-29T09:52:48.574Z,68.40
2018-09-29T09:55:18.494Z,69.70
2018-09-29T09:57:48.199Z,70.10
2018-09-29T10:00:17.954Z,70.20
2018-09-29T10:02:52.968Z,70.70
2018-09-29T10:05:22.703Z,68.10
2018-09-29T10:07:52.382Z,69.20
2018-09-29T10:10:22.415Z,69.50
2018-09-29T10:12:52.430Z,68.80
2018-09-29T10:15:22.171Z,68.90
2018-09-29T10:17:51.870Z,70.00
2018-09-29T10:20:21.574Z,68.90
2018-09-29T10:22:51.323Z,70.20
2018-09-29T10:25:21.631Z,69.60
2018-09-29T10:27:51.572Z,69.40
2018-09-29T10:30:21.484Z,70.40
2018-09-29T10:32:51.191Z,70.00
2018-09-29T10:35:20.903Z,69.40
2018-09-29T10:37:50.623Z,69.70
2018-09-29T10:40:21.434Z,68.40
2018-09-29T10:42:51.168Z,69.70
2018-09-29T10:45:20.875Z,67.80
2018-09-29T10:47:50.606Z,68.30
2018-09-29T10:50:20.323Z,68.90
2018-09-29T10:52:50.018Z,68.60
2018-09-29T10:55:19.954Z,68.50
2018-09-29T10:57:51.438Z,69.50
2018-09-29T11:00:21.233Z,69.10
2018-09-29T11:02:50.907Z,67.70
2018-09-29T11:05:20.617Z,67.70
2018-09-29T11:07:50.530Z,68.80
2018-09-29T11:10:20.284Z,68.10
2018-09-29T11:12:50.304Z,68.10
2018-09-29T11:15:20.067Z,67.70
2018-09-29T11:17:49.835Z,67.80
2018-09-29T11:20:19.555Z,67.70
2018-09-29T11:22:49.275Z,66.80
2018-09-29T11:25:18.992Z,66.90
2018-09-29T11:27:48.801Z,66.30
2018-09-29T11:30:18.734Z,64.60
2018-09-29T11:32:48.416Z,63.30
2018-09-29T11:35:18.702Z,64.20
2018-09-29T11:37:48.391Z,65.70
2018-09-29T11:40:18.075Z,65.30
2018-09-29T11:42:47.772Z,65.10
2018-09-29T11:45:17.476Z,66.70
2018-09-29T11:47:47.173Z,66.40
2018-09-29T11:50:16.954Z,64.90
2018-09-29T11:52:46.689Z,64.70
2018-09-29T11:55:16.395Z,64.30
2018-09-29T11:57:46.399Z,64.60
2018-09-29T12:00:16.083Z,63.90
2018-09-29T12:02:45.771Z,63.90
2018-09-29T12:05:15.500Z,63.50
2018-09-29T12:07:45.321Z,63.10
2018-09-29T12:10:15.132Z,63.20
2018-09-29T12:12:44.847Z,63.50
2018-09-29T12:15:14.550Z,62.40
2018-09-29T12:17:44.297Z,62.20
2018-09-29T12:20:13.970Z,63.50
2018-09-29T12:22:43.658Z,62.50
2018-09-29T12:25:13.329Z,61.70
2018-09-29T12:27:44.871Z,60.40
2018-09-29T12:30:14.612Z,60.00
2018-09-29T12:32:44.319Z,60.30
2018-09-29T12:35:14.071Z,58.50
2018-09-29T12:37:43.845Z,59.50
2018-09-29T12:40:13.646Z,60.30
2018-09-29T12:42:43.359Z,60.10
2018-09-29T12:45:13.246Z,60.70
2018-09-29T12:47:43.316Z,60.80
2018-09-29T12:50:13.224Z,59.90
2018-09-29T12:52:43.116Z,59.00
2018-09-29T12:55:12.840Z,57.90
2018-09-29T12:57:42.517Z,57.10
2018-09-29T13:00:12.224Z,58.40
2018-09-29T13:02:41.931Z,55.90
2018-09-29T13:05:11.678Z,57.20
2018-09-29T13:07:41.547Z,57.70
2018-09-29T13:10:11.259Z,58.30
2018-09-29T13:12:41.970Z,59.40
2018-09-29T13:15:11.968Z,59.00
2018-09-29T13:17:41.682Z,60.20
2018-09-29T13:20:11.398Z,59.70
2018-09-29T13:22:41.098Z,58.50
2018-09-29T13:25:10.763Z,57.10
2018-09-29T13:27:40.503Z,57.90
2018-09-29T13:30:10.222Z,56.70
2018-09-29T13:32:39.943Z,56.50
2018-09-29T13:35:09.659Z,56.00
2018-09-29T13:37:39.376Z,57.50
2018-09-29T13:40:09.085Z,56.10
2018-09-29T13:42:38.760Z,55.60
2018-09-29T13:45:09.147Z,56.10
2018-09-29T13:47:38.856Z,55.00
2018-09-29T13:50:08.559Z,56.10
2018-09-29T13:52:38.266Z,57.40
2018-09-29T13:55:08.238Z,54.10
2018-09-29T13:57:37.951Z,52.70
2018-09-29T14:00:07.734Z,54.90
2018-09-29T14:02:37.472Z,56.30
2018-09-29T14:05:07.255Z,57.40
2018-09-29T14:07:36.958Z,56.90
2018-09-29T14:10:06.708Z,54.70
2018-09-29T14:12:36.396Z,53.90
2018-09-29T14:15:06.363Z,52.70
2018-09-29T14:17:36.048Z,53.80
2018-09-29T14:20:06.796Z,55.60
2018-09-29T14:22:36.459Z,54.60
2018-09-29T14:25:06.340Z,54.30
2018-09-29T14:27:36.020Z,54.50
2018-09-29T14:30:05.872Z,54.60
2018-09-29T14:32:35.676Z,53.30
2018-09-29T14:35:05.575Z,53.00
2018-09-29T14:37:35.267Z,53.80
2018-09-29T14:40:05.096Z,54.20
2018-09-29T14:42:34.783Z,54.30
2018-09-29T14:45:10.350Z,55.00
2018-09-29T14:47:40.216Z,54.30
2018-09-29T14:50:09.931Z,53.10
2018-09-29T14:52:39.617Z,53.30
2018-09-29T14:55:09.393Z,52.80
2018-09-29T14:57:39.059Z,52.90
2018-09-29T15:00:09.080Z,53.40
2018-09-29T15:02:38.766Z,53.80
2018-09-29T15:05:08.463Z,54.30
2018-09-29T15:07:38.167Z,54.50
2018-09-29T15:10:07.912Z,53.50
2018-09-29T15:12:37.633Z,54.60
2018-09-29T15:15:08.213Z,54.50
2018-09-29T15:17:38.022Z,55.10
2018-09-29T15:20:08.095Z,55.30
2018-09-29T15:22:37.784Z,55.10
2018-09-29T15:25:07.591Z,54.80
2018-09-29T15:27:37.243Z,54.60
2018-09-29T15:30:07.051Z,55.20
2018-09-29T15:32:36.718Z,55.50
2018-09-29T15:35:06.523Z,55.70
2018-09-29T15:37:36.211Z,54.30
2018-09-29T15:40:05.976Z,54.50
2018-09-29T15:42:35.742Z,53.90
2018-09-29T15:45:09.629Z,55.90
2018-09-29T15:47:39.476Z,54.30
2018-09-29T15:50:09.495Z,54.50
2018-09-29T15:52:39.194Z,55.10
2018-09-29T15:55:08.979Z,54.10
2018-09-29T15:57:38.884Z,54.20
2018-09-29T16:00:08.973Z,54.90
2018-09-29T16:02:39.179Z,55.00
2018-09-29T16:05:09.288Z,55.60
2018-09-29T16:07:39.015Z,54.70
2018-09-29T16:10:10.653Z,54.80
2018-09-29T16:12:40.507Z,54.90
2018-09-29T16:15:10.404Z,54.50
2018-09-29T16:17:41.494Z,55.20
2018-09-29T16:20:11.998Z,55.80
2018-09-29T16:22:42.068Z,56.30
2018-09-29T16:25:11.831Z,56.10
2018-09-29T16:27:41.871Z,56.30
2018-09-29T16:30:11.637Z,55.40
2018-09-29T16:32:41.653Z,55.90
2018-09-29T16:35:11.440Z,55.30
2018-09-29T16:37:41.256Z,55.10
2018-09-29T16:40:11.011Z,54.90
2018-09-29T16:42:41.012Z,55.00
2018-09-29T16:45:10.744Z,55.60
2018-09-29T16:47:40.754Z,55.90
2018-09-29T16:50:10.503Z,56.50
2018-09-29T16:52:40.230Z,56.80
2018-09-29T16:55:09.979Z,57.10
2018-09-29T16:57:39.995Z,57.20
2018-09-29T17:00:10.069Z,57.60
2018-09-29T17:02:39.810Z,58.20
2018-09-29T17:05:09.569Z,58.60
2018-09-29T17:07:39.301Z,59.30
2018-09-29T17:10:09.066Z,60.20
2018-09-29T17:12:38.795Z,59.60
2018-09-29T17:15:08.591Z,59.60
2018-09-29T17:17:38.609Z,59.70
2018-09-29T17:20:08.644Z,59.90
2018-09-29T17:22:38.368Z,60.30
2018-09-29T17:25:08.134Z,61.00
2018-09-29T17:27:37.927Z,60.70
2018-09-29T17:30:07.748Z,61.60
2018-09-29T17:32:37.819Z,61.70
2018-09-29T17:35:08.283Z,61.20
2018-09-29T17:37:38.394Z,61.30
2018-09-29T17:40:08.539Z,61.50
2018-09-29T17:42:38.634Z,62.00
2018-09-29T17:45:13.997Z,62.50
2018-09-29T17:47:43.800Z,62.70
2018-09-29T17:50:13.583Z,63.80
2018-09-29T17:52:43.416Z,63.20
2018-09-29T17:55:13.822Z,62.90
2018-09-29T17:57:44.000Z,62.90
2018-09-29T18:00:14.277Z,63.10
2018-09-29T18:02:44.453Z,62.70
2018-09-29T18:05:14.417Z,62.90
2018-09-29T18:07:44.568Z,62.60
2018-09-29T18:10:14.269Z,63.00
2018-09-29T18:12:44.380Z,62.80
2018-09-29T18:15:15.029Z,63.50
2018-09-29T18:17:44.916Z,64.50
2018-09-29T18:20:14.651Z,64.90
2018-09-29T18:22:44.453Z,64.40
2018-09-29T18:25:14.247Z,64.80
2018-09-29T18:27:44.161Z,65.20
2018-09-29T18:30:13.986Z,66.60
2018-09-29T18:32:44.275Z,65.70
2018-09-29T18:35:14.079Z,65.80
2018-09-29T18:37:44.075Z,66.20
2018-09-29T18:40:13.907Z,66.00
2018-09-29T18:42:44.029Z,66.20
2018-09-29T18:45:19.350Z,66.00
2018-09-29T18:47:49.123Z,66.30
2018-09-29T18:50:18.872Z,67.10
2018-09-29T18:52:48.627Z,66.20
2018-09-29T18:55:18.432Z,65.80
2018-09-29T18:57:49.368Z,66.20
2018-09-29T19:00:19.277Z,65.90
2018-09-29T19:02:49.506Z,67.10
2018-09-29T19:05:19.332Z,67.20
2018-09-29T19:07:49.251Z,67.70
2018-09-29T19:10:19.012Z,68.30
2018-09-29T19:12:48.909Z,67.50
2018-09-29T19:15:23.542Z,67.10
2018-09-29T19:17:53.575Z,67.40
2018-09-29T19:20:23.364Z,67.60
2018-09-29T19:22:53.304Z,67.80
2018-09-29T19:25:23.075Z,68.30
2018-09-29T19:27:52.887Z,68.70
2018-09-29T19:30:22.999Z,69.00
2018-09-29T19:32:53.327Z,68.40
2018-09-29T19:35:23.399Z,68.50
2018-09-29T19:37:53.431Z,68.30
2018-09-29T19:40:23.226Z,68.00
2018-09-29T19:42:52.947Z,68.10
2018-09-29T19:45:22.967Z,68.70
2018-09-29T19:47:53.264Z,68.60
2018-09-29T19:50:23.257Z,68.20
2018-09-29T19:52:53.303Z,67.90
2018-09-29T19:55:23.560Z,68.30
2018-09-29T19:57:53.432Z,67.80
2018-09-29T20:00:23.466Z,67.70
2018-09-29T20:02:53.231Z,68.30
2018-09-29T20:05:23.303Z,68.10
2018-09-29T20:07:53.431Z,67.90
2018-09-29T20:10:23.483Z,67.70
2018-09-29T20:12:53.338Z,67.80
2018-09-29T20:15:23.111Z,67.90
2018-09-29T20:17:52.951Z,68.40
2018-09-29T20:20:22.702Z,68.10
2018-09-29T20:22:52.611Z,68.30
2018-09-29T20:25:22.491Z,68.10
2018-09-29T20:27:52.367Z,68.30
2018-09-29T20:30:22.123Z,68.30
2018-09-29T20:32:52.163Z,68.00
2018-09-29T20:35:22.159Z,68.10
2018-09-29T20:37:52.094Z,67.70
2018-09-29T20:40:21.808Z,67.90
2018-09-29T20:42:51.657Z,68.90
2018-09-29T20:45:27.106Z,68.50
2018-09-29T20:47:56.888Z,68.50
2018-09-29T20:50:26.628Z,69.20
2018-09-29T20:52:56.599Z,68.40
2018-09-29T20:55:26.662Z,68.60
2018-09-29T20:57:56.447Z,68.80
2018-09-29T21:00:26.247Z,69.30
2018-09-29T21:02:56.356Z,69.30
2018-09-29T21:05:26.076Z,69.40
2018-09-29T21:07:59.353Z,69.40
2018-09-29T21:10:29.083Z,69.40
2018-09-29T21:12:58.867Z,69.00
2018-09-29T21:15:28.779Z,68.70
2018-09-29T21:17:59.218Z,69.10
2018-09-29T21:20:29.526Z,68.80
2018-09-29T21:22:59.280Z,69.40
2018-09-29T21:25:29.055Z,68.30
2018-09-29T21:27:58.794Z,68.30
2018-09-29T21:30:28.503Z,68.40
2018-09-29T21:32:58.303Z,68.20
2018-09-29T21:35:28.075Z,68.70
2018-09-29T21:37:57.878Z,69.20
2018-09-29T21:40:27.923Z,68.70
2018-09-29T21:42:57.714Z,68.70
2018-09-29T21:45:31.300Z,70.10
2018-09-29T21:48:01.084Z,69.50
2018-09-29T21:50:30.792Z,70.30
2018-09-29T21:53:00.542Z,69.70
2018-09-29T21:55:30.247Z,69.90
2018-09-29T21:57:59.940Z,69.50
2018-09-29T22:00:35.376Z,70.00
2018-09-29T22:03:05.402Z,70.10
2018-09-29T22:05:35.147Z,69.90
2018-09-29T22:08:04.899Z,69.70
2018-09-29T22:10:34.619Z,70.80
2018-09-29T22:13:04.426Z,70.40
2018-09-29T22:15:34.191Z,70.50
2018-09-29T22:18:03.884Z,70.50
2018-09-29T22:20:33.566Z,70.40
2018-09-29T22:23:03.273Z,71.00
2018-09-29T22:25:32.951Z,70.50
2018-09-29T22:28:02.619Z,70.90
2018-09-29T22:30:32.303Z,71.00
2018-09-29T22:33:01.977Z,70.30
2018-09-29T22:35:31.870Z,70.70
2018-09-29T22:38:05.346Z,70.60
2018-09-29T22:40:35.027Z,70.80
2018-09-29T22:43:04.695Z,71.20
2018-09-29T22:45:35.275Z,71.60
2018-09-29T22:48:05.307Z,71.60
2018-09-29T22:50:34.999Z,72.10
2018-09-29T22:53:04.659Z,71.70
2018-09-29T22:55:34.354Z,71.20
2018-09-29T22:58:04.061Z,72.00
2018-09-29T23:00:33.754Z,71.80
2018-09-29T23:03:03.430Z,71.60
2018-09-29T23:05:33.119Z,72.30
2018-09-29T23:08:02.805Z,72.20
2018-09-29T23:10:32.499Z,72.20
2018-09-29T23:13:02.228Z,72.30
2018-09-29T23:15:31.999Z,72.90
2018-09-29T23:18:01.683Z,72.60
2018-09-29T23:20:31.430Z,73.50
2018-09-29T23:23:01.088Z,73.00
2018-09-29T23:25:30.776Z,73.70
2018-09-29T23:28:00.425Z,73.80
2018-09-29T23:30:30.119Z,72.50
2018-09-29T23:32:59.767Z,72.40
2018-09-29T23:35:29.463Z,72.60
2018-09-29T23:37:59.276Z,72.50
2018-09-29T23:40:28.990Z,73.20
2018-09-29T23:42:58.704Z,74.50
2018-09-29T23:45:28.378Z,73.00
2018-09-29T23:47:58.106Z,73.70
2018-09-29T23:50:27.787Z,74.40
2018-09-29T23:52:57.495Z,74.20
2018-09-29T23:55:27.178Z,74.10
2018-09-29T23:57:56.946Z,74.10
